sensor_id;sensor_type;location;lat;lon;timestamp;temperature;humidity
44695;DHT22;32845;59.422;17.930;2024-02-23T00:03:40;4.40;99.90
44695;DHT22;32845;59.422;17.930;2024-02-23T00:08:10;4.40;99.90
44695;DHT22;32845;59.422;17.930;2024-02-23T00:12:41;4.30;99.90
44695;DHT22;32845;59.422;17.930;2024-02-23T00:17:14;4.30;99.90
44695;DHT22;32845;59.422;17.930;2024-02-23T00:21:44;4.30;99.90
44695;DHT22;32845;59.422;17.930;2024-02-23T00:26:20;4.30;99.90
44695;DHT22;32845;59.422;17.930;2024-02-23T00:30:50;4.30;99.90
44695;DHT22;32845;59.422;17.930;2024-02-23T00:35:21;4.30;99.90
44695;DHT22;32845;59.422;17.930;2024-02-23T00:39:51;4.20;99.90
44695;DHT22;32845;59.422;17.930;2024-02-23T00:44:22;4.20;99.90
44695;DHT22;32845;59.422;17.930;2024-02-23T00:48:53;4.20;99.90
44695;DHT22;32845;59.422;17.930;2024-02-23T00:53:24;4.20;99.90
44695;DHT22;32845;59.422;17.930;2024-02-23T00:57:55;4.20;99.90
44695;DHT22;32845;59.422;17.930;2024-02-23T01:02:26;4.20;99.90
44695;DHT22;32845;59.422;17.930;2024-02-23T01:06:58;4.20;99.90
44695;DHT22;32845;59.422;17.930;2024-02-23T01:11:29;4.20;99.90
44695;DHT22;32845;59.422;17.930;2024-02-23T01:15:59;4.20;99.90
44695;DHT22;32845;59.422;17.930;2024-02-23T01:20:30;4.20;99.90
44695;DHT22;32845;59.422;17.930;2024-02-23T01:25:00;4.20;99.90
44695;DHT22;32845;59.422;17.930;2024-02-23T01:29:31;4.20;99.90
44695;DHT22;32845;59.422;17.930;2024-02-23T01:34:01;4.20;99.90
44695;DHT22;32845;59.422;17.930;2024-02-23T01:38:32;4.20;99.90
44695;DHT22;32845;59.422;17.930;2024-02-23T01:43:04;4.20;99.90
44695;DHT22;32845;59.422;17.930;2024-02-23T01:47:35;4.30;99.90
44695;DHT22;32845;59.422;17.930;2024-02-23T01:52:05;4.30;99.90
44695;DHT22;32845;59.422;17.930;2024-02-23T01:56:37;4.30;99.90
44695;DHT22;32845;59.422;17.930;2024-02-23T02:01:10;4.30;99.90
44695;DHT22;32845;59.422;17.930;2024-02-23T02:05:41;4.30;99.90
44695;DHT22;32845;59.422;17.930;2024-02-23T02:10:11;4.30;99.90
44695;DHT22;32845;59.422;17.930;2024-02-23T02:14:42;4.40;99.90
44695;DHT22;32845;59.422;17.930;2024-02-23T02:19:13;4.40;99.90
44695;DHT22;32845;59.422;17.930;2024-02-23T02:23:44;4.40;99.90
44695;DHT22;32845;59.422;17.930;2024-02-23T02:28:14;4.40;99.90
44695;DHT22;32845;59.422;17.930;2024-02-23T02:32:45;4.40;99.90
44695;DHT22;32845;59.422;17.930;2024-02-23T02:37:16;4.40;99.90
44695;DHT22;32845;59.422;17.930;2024-02-23T02:41:48;4.40;99.90
44695;DHT22;32845;59.422;17.930;2024-02-23T02:46:19;4.40;99.90
44695;DHT22;32845;59.422;17.930;2024-02-23T02:50:53;4.40;99.90
44695;DHT22;32845;59.422;17.930;2024-02-23T02:55:23;4.40;99.90
44695;DHT22;32845;59.422;17.930;2024-02-23T02:59:54;4.40;99.90
44695;DHT22;32845;59.422;17.930;2024-02-23T03:04:24;4.40;99.90
44695;DHT22;32845;59.422;17.930;2024-02-23T03:08:55;4.40;99.90
44695;DHT22;32845;59.422;17.930;2024-02-23T03:13:25;4.50;99.90
44695;DHT22;32845;59.422;17.930;2024-02-23T03:17:56;4.50;99.90
44695;DHT22;32845;59.422;17.930;2024-02-23T03:22:27;4.50;99.90
44695;DHT22;32845;59.422;17.930;2024-02-23T03:26:58;4.50;99.90
44695;DHT22;32845;59.422;17.930;2024-02-23T03:31:28;4.50;99.90
44695;DHT22;32845;59.422;17.930;2024-02-23T03:35:59;4.50;99.90
44695;DHT22;32845;59.422;17.930;2024-02-23T03:40:30;4.50;99.90
44695;DHT22;32845;59.422;17.930;2024-02-23T03:45:02;4.60;99.90
44695;DHT22;32845;59.422;17.930;2024-02-23T03:49:33;4.60;99.90
44695;DHT22;32845;59.422;17.930;2024-02-23T03:54:04;4.60;99.90
44695;DHT22;32845;59.422;17.930;2024-02-23T03:58:34;4.60;99.90
44695;DHT22;32845;59.422;17.930;2024-02-23T04:03:05;4.60;99.90
44695;DHT22;32845;59.422;17.930;2024-02-23T04:07:35;4.60;99.90
44695;DHT22;32845;59.422;17.930;2024-02-23T04:12:06;4.60;99.90
44695;DHT22;32845;59.422;17.930;2024-02-23T04:16:37;4.70;99.90
44695;DHT22;32845;59.422;17.930;2024-02-23T04:21:08;4.70;99.90
44695;DHT22;32845;59.422;17.930;2024-02-23T04:25:38;4.70;99.90
44695;DHT22;32845;59.422;17.930;2024-02-23T04:30:10;4.80;99.90
44695;DHT22;32845;59.422;17.930;2024-02-23T04:34:41;4.80;99.90
44695;DHT22;32845;59.422;17.930;2024-02-23T04:39:11;4.80;99.90
44695;DHT22;32845;59.422;17.930;2024-02-23T04:43:42;4.80;99.90
44695;DHT22;32845;59.422;17.930;2024-02-23T04:48:13;4.80;99.90
44695;DHT22;32845;59.422;17.930;2024-02-23T04:52:43;4.80;99.90
44695;DHT22;32845;59.422;17.930;2024-02-23T04:57:14;4.90;99.90
44695;DHT22;32845;59.422;17.930;2024-02-23T05:01:44;4.90;99.90
44695;DHT22;32845;59.422;17.930;2024-02-23T05:06:15;4.90;99.90
44695;DHT22;32845;59.422;17.930;2024-02-23T05:10:49;4.90;99.90
44695;DHT22;32845;59.422;17.930;2024-02-23T05:15:20;4.90;99.90
44695;DHT22;32845;59.422;17.930;2024-02-23T05:19:51;4.90;99.90
44695;DHT22;32845;59.422;17.930;2024-02-23T05:24:22;4.90;99.90
44695;DHT22;32845;59.422;17.930;2024-02-23T05:28:52;4.90;99.90
44695;DHT22;32845;59.422;17.930;2024-02-23T05:33:24;4.90;99.90
44695;DHT22;32845;59.422;17.930;2024-02-23T05:37:54;4.90;99.90
44695;DHT22;32845;59.422;17.930;2024-02-23T05:42:26;4.90;99.90
44695;DHT22;32845;59.422;17.930;2024-02-23T05:46:56;4.90;99.90
44695;DHT22;32845;59.422;17.930;2024-02-23T05:51:30;4.90;99.90
44695;DHT22;32845;59.422;17.930;2024-02-23T05:56:01;5.00;99.90
44695;DHT22;32845;59.422;17.930;2024-02-23T06:00:32;5.00;99.90
44695;DHT22;32845;59.422;17.930;2024-02-23T06:05:02;5.00;99.90
44695;DHT22;32845;59.422;17.930;2024-02-23T06:09:34;5.00;99.90
44695;DHT22;32845;59.422;17.930;2024-02-23T06:14:05;5.00;99.90
44695;DHT22;32845;59.422;17.930;2024-02-23T06:18:35;5.00;99.90
44695;DHT22;32845;59.422;17.930;2024-02-23T06:23:06;5.00;99.90
44695;DHT22;32845;59.422;17.930;2024-02-23T06:27:37;5.00;99.90
44695;DHT22;32845;59.422;17.930;2024-02-23T06:32:08;5.00;99.90
44695;DHT22;32845;59.422;17.930;2024-02-23T06:36:38;5.00;99.90
44695;DHT22;32845;59.422;17.930;2024-02-23T06:41:09;5.10;99.90
44695;DHT22;32845;59.422;17.930;2024-02-23T06:45:41;5.10;99.90
44695;DHT22;32845;59.422;17.930;2024-02-23T06:50:11;5.10;99.90
44695;DHT22;32845;59.422;17.930;2024-02-23T06:54:42;5.10;99.90
44695;DHT22;32845;59.422;17.930;2024-02-23T06:59:13;5.10;99.90
44695;DHT22;32845;59.422;17.930;2024-02-23T07:03:43;5.10;99.90
44695;DHT22;32845;59.422;17.930;2024-02-23T07:08:15;5.10;99.90
44695;DHT22;32845;59.422;17.930;2024-02-23T07:12:46;5.10;99.90
44695;DHT22;32845;59.422;17.930;2024-02-23T07:17:17;5.10;99.90
44695;DHT22;32845;59.422;17.930;2024-02-23T07:21:48;5.10;99.90
44695;DHT22;32845;59.422;17.930;2024-02-23T07:26:18;5.10;99.90
44695;DHT22;32845;59.422;17.930;2024-02-23T07:30:50;5.10;99.90
44695;DHT22;32845;59.422;17.930;2024-02-23T07:35:21;5.20;99.90
44695;DHT22;32845;59.422;17.930;2024-02-23T07:39:52;5.20;99.90
44695;DHT22;32845;59.422;17.930;2024-02-23T07:44:22;5.20;99.90
44695;DHT22;32845;59.422;17.930;2024-02-23T07:48:55;5.20;99.90
44695;DHT22;32845;59.422;17.930;2024-02-23T07:53:26;5.20;99.90
44695;DHT22;32845;59.422;17.930;2024-02-23T07:57:56;5.20;99.90
44695;DHT22;32845;59.422;17.930;2024-02-23T08:02:31;5.20;99.90
44695;DHT22;32845;59.422;17.930;2024-02-23T08:07:02;5.20;99.90
44695;DHT22;32845;59.422;17.930;2024-02-23T08:11:32;5.20;99.90
44695;DHT22;32845;59.422;17.930;2024-02-23T08:16:08;5.30;99.90
44695;DHT22;32845;59.422;17.930;2024-02-23T08:20:39;5.20;99.90
44695;DHT22;32845;59.422;17.930;2024-02-23T08:25:09;5.20;99.90
44695;DHT22;32845;59.422;17.930;2024-02-23T08:29:40;5.20;99.90
44695;DHT22;32845;59.422;17.930;2024-02-23T08:34:11;5.30;99.90
44695;DHT22;32845;59.422;17.930;2024-02-23T08:38:42;5.30;99.90
44695;DHT22;32845;59.422;17.930;2024-02-23T08:43:13;5.30;99.90
44695;DHT22;32845;59.422;17.930;2024-02-23T08:47:44;5.30;99.90
44695;DHT22;32845;59.422;17.930;2024-02-23T08:52:15;5.30;99.90
44695;DHT22;32845;59.422;17.930;2024-02-23T08:56:45;5.40;99.90
44695;DHT22;32845;59.422;17.930;2024-02-23T09:01:16;5.40;99.90
44695;DHT22;32845;59.422;17.930;2024-02-23T09:05:47;5.50;99.90
44695;DHT22;32845;59.422;17.930;2024-02-23T09:10:18;5.50;99.90
44695;DHT22;32845;59.422;17.930;2024-02-23T09:14:49;5.60;99.90
44695;DHT22;32845;59.422;17.930;2024-02-23T09:19:19;5.60;99.90
44695;DHT22;32845;59.422;17.930;2024-02-23T09:23:50;5.70;99.90
44695;DHT22;32845;59.422;17.930;2024-02-23T09:28:21;5.60;99.90
44695;DHT22;32845;59.422;17.930;2024-02-23T09:32:52;5.70;99.90
44695;DHT22;32845;59.422;17.930;2024-02-23T09:37:22;5.70;99.90
44695;DHT22;32845;59.422;17.930;2024-02-23T09:41:54;5.70;99.90
44695;DHT22;32845;59.422;17.930;2024-02-23T09:46:25;5.80;99.90
44695;DHT22;32845;59.422;17.930;2024-02-23T09:50:57;5.80;99.90
44695;DHT22;32845;59.422;17.930;2024-02-23T09:55:29;5.90;99.90
44695;DHT22;32845;59.422;17.930;2024-02-23T09:59:59;6.00;99.90
44695;DHT22;32845;59.422;17.930;2024-02-23T10:04:31;6.10;99.90
44695;DHT22;32845;59.422;17.930;2024-02-23T10:09:02;6.20;99.90
44695;DHT22;32845;59.422;17.930;2024-02-23T10:13:34;6.20;99.90
44695;DHT22;32845;59.422;17.930;2024-02-23T10:18:05;6.30;99.90
44695;DHT22;32845;59.422;17.930;2024-02-23T10:22:35;6.40;99.90
44695;DHT22;32845;59.422;17.930;2024-02-23T10:27:06;6.60;99.90
44695;DHT22;32845;59.422;17.930;2024-02-23T10:31:37;7.30;99.90
44695;DHT22;32845;59.422;17.930;2024-02-23T10:36:08;8.60;99.90
44695;DHT22;32845;59.422;17.930;2024-02-23T10:40:43;10.40;99.90
44695;DHT22;32845;59.422;17.930;2024-02-23T10:45:20;12.20;99.90
44695;DHT22;32845;59.422;17.930;2024-02-23T10:49:52;13.20;99.90
44695;DHT22;32845;59.422;17.930;2024-02-23T10:54:23;13.20;99.90
44695;DHT22;32845;59.422;17.930;2024-02-23T10:58:54;12.50;99.90
44695;DHT22;32845;59.422;17.930;2024-02-23T11:03:25;12.00;99.90
44695;DHT22;32845;59.422;17.930;2024-02-23T11:07:57;12.00;99.90
44695;DHT22;32845;59.422;17.930;2024-02-23T11:12:31;12.10;99.90
44695;DHT22;32845;59.422;17.930;2024-02-23T11:17:02;12.00;99.90
44695;DHT22;32845;59.422;17.930;2024-02-23T11:21:34;11.80;99.90
44695;DHT22;32845;59.422;17.930;2024-02-23T11:26:06;12.00;99.90
44695;DHT22;32845;59.422;17.930;2024-02-23T11:30:44;12.30;99.90
44695;DHT22;32845;59.422;17.930;2024-02-23T11:35:17;11.70;99.90
44695;DHT22;32845;59.422;17.930;2024-02-23T11:39:51;11.70;99.90
44695;DHT22;32845;59.422;17.930;2024-02-23T11:44:22;11.80;99.90
44695;DHT22;32845;59.422;17.930;2024-02-23T11:48:53;11.80;99.90
44695;DHT22;32845;59.422;17.930;2024-02-23T11:53:24;12.60;99.90
44695;DHT22;32845;59.422;17.930;2024-02-23T11:57:57;13.90;99.90
44695;DHT22;32845;59.422;17.930;2024-02-23T12:02:28;15.30;99.90
44695;DHT22;32845;59.422;17.930;2024-02-23T12:06:59;16.10;99.90
44695;DHT22;32845;59.422;17.930;2024-02-23T12:11:29;16.80;99.90
44695;DHT22;32845;59.422;17.930;2024-02-23T12:16:01;17.30;99.90
44695;DHT22;32845;59.422;17.930;2024-02-23T12:20:35;17.40;98.10
44695;DHT22;32845;59.422;17.930;2024-02-23T12:25:06;17.10;99.90
44695;DHT22;32845;59.422;17.930;2024-02-23T12:29:37;17.10;97.20
44695;DHT22;32845;59.422;17.930;2024-02-23T12:34:11;17.30;98.80
44695;DHT22;32845;59.422;17.930;2024-02-23T12:38:42;17.20;91.50
44695;DHT22;32845;59.422;17.930;2024-02-23T12:43:13;16.60;94.00
44695;DHT22;32845;59.422;17.930;2024-02-23T12:47:43;16.30;97.30
44695;DHT22;32845;59.422;17.930;2024-02-23T12:52:14;16.40;95.90
44695;DHT22;32845;59.422;17.930;2024-02-23T12:56:45;16.30;93.80
44695;DHT22;32845;59.422;17.930;2024-02-23T13:01:16;16.00;94.00
44695;DHT22;32845;59.422;17.930;2024-02-23T13:05:47;15.50;96.00
44695;DHT22;32845;59.422;17.930;2024-02-23T13:10:18;15.10;92.80
44695;DHT22;32845;59.422;17.930;2024-02-23T13:14:50;14.70;96.40
44695;DHT22;32845;59.422;17.930;2024-02-23T13:19:21;14.10;96.50
44695;DHT22;32845;59.422;17.930;2024-02-23T13:23:51;12.90;97.60
44695;DHT22;32845;59.422;17.930;2024-02-23T13:28:22;11.70;99.70
44695;DHT22;32845;59.422;17.930;2024-02-23T13:32:53;10.90;99.90
44695;DHT22;32845;59.422;17.930;2024-02-23T13:37:24;10.40;99.90
44695;DHT22;32845;59.422;17.930;2024-02-23T13:41:56;10.00;99.90
44695;DHT22;32845;59.422;17.930;2024-02-23T13:46:27;9.60;99.90
44695;DHT22;32845;59.422;17.930;2024-02-23T13:50:57;9.40;99.90
44695;DHT22;32845;59.422;17.930;2024-02-23T13:55:33;9.10;99.90
44695;DHT22;32845;59.422;17.930;2024-02-23T14:00:04;8.90;99.90
44695;DHT22;32845;59.422;17.930;2024-02-23T14:04:38;8.80;99.90
44695;DHT22;32845;59.422;17.930;2024-02-23T14:09:09;8.70;99.90
44695;DHT22;32845;59.422;17.930;2024-02-23T14:13:40;8.60;99.90
44695;DHT22;32845;59.422;17.930;2024-02-23T14:18:10;8.70;99.90
44695;DHT22;32845;59.422;17.930;2024-02-23T14:22:41;8.70;99.90
44695;DHT22;32845;59.422;17.930;2024-02-23T14:27:12;8.60;99.90
44695;DHT22;32845;59.422;17.930;2024-02-23T14:31:43;8.60;99.90
44695;DHT22;32845;59.422;17.930;2024-02-23T14:36:13;8.50;99.90
44695;DHT22;32845;59.422;17.930;2024-02-23T14:40:44;8.40;99.90
44695;DHT22;32845;59.422;17.930;2024-02-23T14:45:15;8.30;99.90
44695;DHT22;32845;59.422;17.930;2024-02-23T14:49:47;8.10;99.90
44695;DHT22;32845;59.422;17.930;2024-02-23T14:54:17;8.00;99.90
44695;DHT22;32845;59.422;17.930;2024-02-23T14:58:48;7.90;99.90
44695;DHT22;32845;59.422;17.930;2024-02-23T15:03:18;7.80;99.90
44695;DHT22;32845;59.422;17.930;2024-02-23T15:07:49;7.70;99.90
44695;DHT22;32845;59.422;17.930;2024-02-23T15:12:20;7.70;99.90
44695;DHT22;32845;59.422;17.930;2024-02-23T15:16:52;7.60;99.90
44695;DHT22;32845;59.422;17.930;2024-02-23T15:21:22;7.50;99.90
44695;DHT22;32845;59.422;17.930;2024-02-23T15:25:53;7.50;99.90
44695;DHT22;32845;59.422;17.930;2024-02-23T15:30:25;7.40;99.90
44695;DHT22;32845;59.422;17.930;2024-02-23T15:34:55;7.30;99.90
44695;DHT22;32845;59.422;17.930;2024-02-23T15:39:26;7.20;99.90
44695;DHT22;32845;59.422;17.930;2024-02-23T15:43:57;7.20;99.90
44695;DHT22;32845;59.422;17.930;2024-02-23T15:48:27;7.10;99.90
44695;DHT22;32845;59.422;17.930;2024-02-23T15:52:58;7.10;99.90
44695;DHT22;32845;59.422;17.930;2024-02-23T15:57:28;7.00;99.90
44695;DHT22;32845;59.422;17.930;2024-02-23T16:01:59;6.80;99.90
44695;DHT22;32845;59.422;17.930;2024-02-23T16:06:32;6.70;99.90
44695;DHT22;32845;59.422;17.930;2024-02-23T16:11:05;6.60;99.90
44695;DHT22;32845;59.422;17.930;2024-02-23T16:15:36;6.60;99.90
44695;DHT22;32845;59.422;17.930;2024-02-23T16:20:07;6.40;99.90
44695;DHT22;32845;59.422;17.930;2024-02-23T16:24:37;6.30;99.90
44695;DHT22;32845;59.422;17.930;2024-02-23T16:29:08;6.30;99.90
44695;DHT22;32845;59.422;17.930;2024-02-23T16:33:39;6.20;99.90
44695;DHT22;32845;59.422;17.930;2024-02-23T16:38:10;6.10;99.90
44695;DHT22;32845;59.422;17.930;2024-02-23T16:42:41;6.10;99.90
44695;DHT22;32845;59.422;17.930;2024-02-23T16:47:12;6.00;99.90
44695;DHT22;32845;59.422;17.930;2024-02-23T16:51:42;6.00;99.90
44695;DHT22;32845;59.422;17.930;2024-02-23T16:56:16;5.90;99.90
44695;DHT22;32845;59.422;17.930;2024-02-23T17:00:47;5.80;99.90
44695;DHT22;32845;59.422;17.930;2024-02-23T17:05:18;5.80;99.90
44695;DHT22;32845;59.422;17.930;2024-02-23T17:09:48;5.80;99.90
44695;DHT22;32845;59.422;17.930;2024-02-23T17:14:19;5.80;99.90
44695;DHT22;32845;59.422;17.930;2024-02-23T17:18:50;5.70;99.90
44695;DHT22;32845;59.422;17.930;2024-02-23T17:23:20;5.70;99.90
44695;DHT22;32845;59.422;17.930;2024-02-23T17:27:51;5.70;99.90
44695;DHT22;32845;59.422;17.930;2024-02-23T17:32:22;5.70;99.90
44695;DHT22;32845;59.422;17.930;2024-02-23T17:36:53;5.70;99.90
44695;DHT22;32845;59.422;17.930;2024-02-23T17:41:23;5.60;99.90
44695;DHT22;32845;59.422;17.930;2024-02-23T17:45:54;5.60;99.90
44695;DHT22;32845;59.422;17.930;2024-02-23T17:50:24;5.60;99.90
44695;DHT22;32845;59.422;17.930;2024-02-23T17:54:58;5.50;99.90
44695;DHT22;32845;59.422;17.930;2024-02-23T17:59:29;5.50;99.90
44695;DHT22;32845;59.422;17.930;2024-02-23T18:03:59;5.50;99.90
44695;DHT22;32845;59.422;17.930;2024-02-23T18:08:30;5.50;99.90
44695;DHT22;32845;59.422;17.930;2024-02-23T18:13:02;5.50;99.90
44695;DHT22;32845;59.422;17.930;2024-02-23T18:17:33;5.40;99.90
44695;DHT22;32845;59.422;17.930;2024-02-23T18:22:03;5.40;99.90
44695;DHT22;32845;59.422;17.930;2024-02-23T18:26:34;5.30;99.90
44695;DHT22;32845;59.422;17.930;2024-02-23T18:31:05;5.30;99.90
44695;DHT22;32845;59.422;17.930;2024-02-23T18:35:35;5.20;99.90
44695;DHT22;32845;59.422;17.930;2024-02-23T18:40:06;5.20;99.90
44695;DHT22;32845;59.422;17.930;2024-02-23T18:44:37;5.20;99.90
44695;DHT22;32845;59.422;17.930;2024-02-23T18:49:08;5.10;99.90
44695;DHT22;32845;59.422;17.930;2024-02-23T18:53:38;5.10;99.90
44695;DHT22;32845;59.422;17.930;2024-02-23T18:58:09;5.10;99.90
44695;DHT22;32845;59.422;17.930;2024-02-23T19:02:40;5.00;99.90
44695;DHT22;32845;59.422;17.930;2024-02-23T19:07:11;5.00;99.90
44695;DHT22;32845;59.422;17.930;2024-02-23T19:11:42;4.90;99.90
44695;DHT22;32845;59.422;17.930;2024-02-23T19:16:13;4.90;99.90
44695;DHT22;32845;59.422;17.930;2024-02-23T19:20:46;4.90;99.90
44695;DHT22;32845;59.422;17.930;2024-02-23T19:25:17;4.90;99.90
44695;DHT22;32845;59.422;17.930;2024-02-23T19:29:49;4.90;99.90
44695;DHT22;32845;59.422;17.930;2024-02-23T19:34:19;4.90;99.90
44695;DHT22;32845;59.422;17.930;2024-02-23T19:38:50;4.90;99.90
44695;DHT22;32845;59.422;17.930;2024-02-23T19:43:21;4.90;99.90
44695;DHT22;32845;59.422;17.930;2024-02-23T19:47:51;4.90;99.90
44695;DHT22;32845;59.422;17.930;2024-02-23T19:52:22;4.80;99.90
44695;DHT22;32845;59.422;17.930;2024-02-23T19:56:53;4.80;99.90
44695;DHT22;32845;59.422;17.930;2024-02-23T20:01:24;4.80;99.90
44695;DHT22;32845;59.422;17.930;2024-02-23T20:05:54;4.70;99.90
44695;DHT22;32845;59.422;17.930;2024-02-23T20:10:25;4.70;99.90
44695;DHT22;32845;59.422;17.930;2024-02-23T20:14:55;4.70;99.90
44695;DHT22;32845;59.422;17.930;2024-02-23T20:19:27;4.60;99.90
44695;DHT22;32845;59.422;17.930;2024-02-23T20:23:58;4.60;99.90
44695;DHT22;32845;59.422;17.930;2024-02-23T20:28:28;4.60;99.90
44695;DHT22;32845;59.422;17.930;2024-02-23T20:32:59;4.50;99.90
44695;DHT22;32845;59.422;17.930;2024-02-23T20:37:30;4.50;99.90
44695;DHT22;32845;59.422;17.930;2024-02-23T20:42:00;4.40;99.90
44695;DHT22;32845;59.422;17.930;2024-02-23T20:46:32;4.40;99.90
44695;DHT22;32845;59.422;17.930;2024-02-23T20:51:03;4.40;99.90
44695;DHT22;32845;59.422;17.930;2024-02-23T20:55:35;4.30;99.90
44695;DHT22;32845;59.422;17.930;2024-02-23T21:00:06;4.30;99.90
44695;DHT22;32845;59.422;17.930;2024-02-23T21:04:37;4.30;99.90
44695;DHT22;32845;59.422;17.930;2024-02-23T21:09:12;4.20;99.90
44695;DHT22;32845;59.422;17.930;2024-02-23T21:13:43;4.20;99.90
44695;DHT22;32845;59.422;17.930;2024-02-23T21:18:13;4.20;99.90
44695;DHT22;32845;59.422;17.930;2024-02-23T21:22:48;4.20;99.90
44695;DHT22;32845;59.422;17.930;2024-02-23T21:27:19;4.20;99.90
44695;DHT22;32845;59.422;17.930;2024-02-23T21:31:49;4.10;99.90
44695;DHT22;32845;59.422;17.930;2024-02-23T21:36:20;4.20;99.90
44695;DHT22;32845;59.422;17.930;2024-02-23T21:40:51;4.10;99.90
44695;DHT22;32845;59.422;17.930;2024-02-23T21:45:21;4.10;99.90
44695;DHT22;32845;59.422;17.930;2024-02-23T21:49:52;4.20;99.90
44695;DHT22;32845;59.422;17.930;2024-02-23T21:54:22;4.10;99.90
44695;DHT22;32845;59.422;17.930;2024-02-23T21:58:53;4.20;99.90
44695;DHT22;32845;59.422;17.930;2024-02-23T22:03:24;4.20;99.90
44695;DHT22;32845;59.422;17.930;2024-02-23T22:07:55;4.20;99.90
44695;DHT22;32845;59.422;17.930;2024-02-23T22:12:26;4.20;99.90
44695;DHT22;32845;59.422;17.930;2024-02-23T22:16:57;4.10;99.90
44695;DHT22;32845;59.422;17.930;2024-02-23T22:21:27;4.10;99.90
44695;DHT22;32845;59.422;17.930;2024-02-23T22:25:58;4.10;99.90
44695;DHT22;32845;59.422;17.930;2024-02-23T22:30:29;4.10;99.90
44695;DHT22;32845;59.422;17.930;2024-02-23T22:34:59;4.00;99.90
44695;DHT22;32845;59.422;17.930;2024-02-23T22:39:30;4.00;99.90
44695;DHT22;32845;59.422;17.930;2024-02-23T22:44:01;4.00;99.90
44695;DHT22;32845;59.422;17.930;2024-02-23T22:48:31;4.00;99.90
44695;DHT22;32845;59.422;17.930;2024-02-23T22:53:02;4.00;99.90
44695;DHT22;32845;59.422;17.930;2024-02-23T22:57:35;4.00;99.90
44695;DHT22;32845;59.422;17.930;2024-02-23T23:02:05;3.90;99.90
44695;DHT22;32845;59.422;17.930;2024-02-23T23:06:36;3.90;99.90
44695;DHT22;32845;59.422;17.930;2024-02-23T23:11:08;3.90;99.90
44695;DHT22;32845;59.422;17.930;2024-02-23T23:15:38;3.90;99.90
44695;DHT22;32845;59.422;17.930;2024-02-23T23:20:09;3.90;99.90
44695;DHT22;32845;59.422;17.930;2024-02-23T23:24:40;3.80;99.90
44695;DHT22;32845;59.422;17.930;2024-02-23T23:29:11;3.70;99.90
44695;DHT22;32845;59.422;17.930;2024-02-23T23:33:42;3.70;99.90
44695;DHT22;32845;59.422;17.930;2024-02-23T23:38:12;3.60;99.90
44695;DHT22;32845;59.422;17.930;2024-02-23T23:42:43;3.50;99.90
44695;DHT22;32845;59.422;17.930;2024-02-23T23:47:14;3.40;99.90
44695;DHT22;32845;59.422;17.930;2024-02-23T23:51:44;3.40;99.90
44695;DHT22;32845;59.422;17.930;2024-02-23T23:56:15;3.40;99.90
